createdAt,value
2023-01-17T00:00:06.637Z,98899.88
2023-01-17T00:02:33.619Z,98900.97
2023-01-17T00:05:18.961Z,98905.31
2023-01-17T00:08:04.039Z,98902.06
2023-01-17T00:10:30.900Z,98899.88
2023-01-17T00:13:02.140Z,98892.00
2023-01-17T00:15:29.822Z,98897.81
2023-01-17T00:17:56.805Z,98901.63
2023-01-17T00:20:44.128Z,98897.53
2023-01-17T00:23:37.465Z,98890.06
2023-01-17T00:26:14.939Z,98890.31
2023-01-17T00:28:42.833Z,98886.78
2023-01-17T00:31:10.576Z,98885.84
2023-01-17T00:33:37.356Z,98873.03
2023-01-17T00:36:04.692Z,98861.88
2023-01-17T00:38:33.123Z,98871.66
2023-01-17T00:41:12.981Z,98871.50
2023-01-17T00:43:58.346Z,98864.97
2023-01-17T00:46:43.621Z,98861.69
2023-01-17T00:49:28.679Z,98848.50
2023-01-17T00:52:13.908Z,98851.22
2023-01-17T00:54:58.989Z,98831.75
2023-01-17T00:57:44.243Z,98846.97
2023-01-17T01:00:30.105Z,98844.63
2023-01-17T01:03:15.589Z,98832.28
2023-01-17T01:06:00.885Z,98825.88
2023-01-17T01:08:47.653Z,98813.63
2023-01-17T01:11:34.725Z,98809.56
2023-01-17T01:14:20.462Z,98800.31
2023-01-17T01:17:05.933Z,98798.59
2023-01-17T01:19:51.686Z,98779.16
2023-01-17T01:22:36.764Z,98781.75
2023-01-17T01:25:22.382Z,98780.38
2023-01-17T01:28:07.729Z,98770.44
2023-01-17T01:30:52.843Z,98779.25
2023-01-17T01:33:19.680Z,98766.63
2023-01-17T01:35:54.019Z,98777.34
2023-01-17T01:38:22.711Z,98765.66
2023-01-17T01:40:51.197Z,98754.91
2023-01-17T01:43:20.518Z,98767.66
2023-01-17T01:45:54.799Z,98756.13
2023-01-17T01:48:34.739Z,98736.53
2023-01-17T01:51:06.426Z,98728.41
2023-01-17T01:53:33.942Z,98725.06
2023-01-17T01:56:00.820Z,98729.81
2023-01-17T01:58:28.199Z,98720.94
2023-01-17T02:00:55.066Z,98688.19
2023-01-17T02:03:26.362Z,98684.66
2023-01-17T02:05:53.205Z,98697.66
2023-01-17T02:08:21.799Z,98682.28
2023-01-17T02:10:48.666Z,98663.78
2023-01-17T02:13:16.320Z,98661.72
2023-01-17T02:15:49.359Z,98668.91
2023-01-17T02:18:30.903Z,98661.59
2023-01-17T02:21:18.879Z,98658.03
2023-01-17T02:23:51.540Z,98656.41
2023-01-17T02:26:18.281Z,98660.16
2023-01-17T02:29:05.926Z,98657.59
2023-01-17T02:31:33.466Z,98647.41
2023-01-17T02:34:32.819Z,98646.25
2023-01-17T02:37:34.951Z,98647.09
2023-01-17T02:40:18.005Z,98638.16
2023-01-17T02:42:47.206Z,98640.44
2023-01-17T02:45:18.245Z,98633.13
2023-01-17T02:47:45.391Z,98630.69
2023-01-17T02:50:20.226Z,98635.78
2023-01-17T02:53:12.645Z,98621.34
2023-01-17T02:55:57.698Z,98608.72
2023-01-17T02:58:34.785Z,98617.50
2023-01-17T03:01:26.250Z,98602.66
2023-01-17T03:04:11.649Z,98607.81
2023-01-17T03:06:45.886Z,98605.91
2023-01-17T03:09:14.481Z,98604.94
2023-01-17T03:11:42.019Z,98589.50
2023-01-17T03:14:08.811Z,98591.63
2023-01-17T03:16:35.680Z,98582.75
2023-01-17T03:19:02.640Z,98575.16
2023-01-17T03:21:29.462Z,98583.72
2023-01-17T03:23:56.239Z,98581.28
2023-01-17T03:26:23.063Z,98563.34
2023-01-17T03:28:50.782Z,98558.81
2023-01-17T03:31:17.748Z,98563.06
2023-01-17T03:33:44.540Z,98558.72
2023-01-17T03:36:12.136Z,98534.56
2023-01-17T03:38:39.057Z,98535.38
2023-01-17T03:41:06.189Z,98542.03
2023-01-17T03:43:32.973Z,98541.34
2023-01-17T03:46:03.840Z,98546.56
2023-01-17T03:48:30.679Z,98545.34
2023-01-17T03:50:57.519Z,98539.47
2023-01-17T03:53:24.422Z,98535.78
2023-01-17T03:55:51.240Z,98520.88
2023-01-17T03:58:18.065Z,98524.94
2023-01-17T04:00:44.860Z,98510.81
2023-01-17T04:03:11.723Z,98524.63
2023-01-17T04:05:38.520Z,98505.34
2023-01-17T04:08:07.310Z,98510.22
2023-01-17T04:10:34.243Z,98513.44
2023-01-17T04:13:01.061Z,98509.91
2023-01-17T04:15:27.861Z,98492.72
2023-01-17T04:17:54.685Z,98492.72
2023-01-17T04:20:40.503Z,98499.75
2023-01-17T04:23:07.367Z,98485.34
2023-01-17T04:25:34.180Z,98487.13
2023-01-17T04:28:01.396Z,98472.69
2023-01-17T04:30:28.460Z,98479.03
2023-01-17T04:32:55.367Z,98468.63
2023-01-17T04:35:22.169Z,98466.03
2023-01-17T04:37:48.992Z,98471.41
2023-01-17T04:40:15.980Z,98470.91
2023-01-17T04:42:44.927Z,98474.66
2023-01-17T04:45:12.184Z,98468.31
2023-01-17T04:47:38.978Z,98472.22
2023-01-17T04:50:06.128Z,98465.09
2023-01-17T04:52:32.942Z,98459.44
2023-01-17T04:54:59.799Z,98451.69
2023-01-17T04:57:26.641Z,98454.91
2023-01-17T04:59:53.774Z,98444.22
2023-01-17T05:02:20.570Z,98454.91
2023-01-17T05:04:47.432Z,98445.03
2023-01-17T05:07:14.263Z,98461.94
2023-01-17T05:09:41.139Z,98431.25
2023-01-17T05:12:08.007Z,98461.94
2023-01-17T05:14:34.859Z,98455.41
2023-01-17T05:17:03.176Z,98451.56
2023-01-17T05:19:30.073Z,98451.56
2023-01-17T05:22:04.032Z,98449.94
2023-01-17T05:24:31.669Z,98439.88
2023-01-17T05:27:03.296Z,98424.34
2023-01-17T05:29:30.856Z,98431.81
2023-01-17T05:31:57.837Z,98417.22
2023-01-17T05:34:24.859Z,98412.38
2023-01-17T05:36:51.771Z,98427.44
2023-01-17T05:39:18.643Z,98430.84
2023-01-17T05:41:45.856Z,98414.16
2023-01-17T05:44:12.745Z,98432.00
2023-01-17T05:46:39.591Z,98403.50
2023-01-17T05:49:06.399Z,98421.31
2023-01-17T05:51:33.340Z,98423.91
2023-01-17T05:54:00.118Z,98420.50
2023-01-17T05:56:26.952Z,98423.72
2023-01-17T05:58:53.751Z,98423.22
2023-01-17T06:01:20.627Z,98416.94
2023-01-17T06:03:47.424Z,98427.78
2023-01-17T06:06:14.327Z,98423.22
2023-01-17T06:08:41.440Z,98428.78
2023-01-17T06:11:08.238Z,98420.34
2023-01-17T06:13:35.141Z,98428.91
2023-01-17T06:16:04.140Z,98423.09
2023-01-17T06:18:31.234Z,98422.25
2023-01-17T06:20:58.061Z,98413.19
2023-01-17T06:23:24.990Z,98414.84
2023-01-17T06:25:51.963Z,98410.47
2023-01-17T06:28:20.301Z,98413.84
2023-01-17T06:30:47.310Z,98423.09
2023-01-17T06:33:14.165Z,98418.06
2023-01-17T06:35:46.907Z,98419.53
2023-01-17T06:38:13.672Z,98417.56
2023-01-17T06:40:40.484Z,98414.34
2023-01-17T06:43:07.259Z,98431.00
2023-01-17T06:45:34.443Z,98423.41
2023-01-17T06:48:01.880Z,98434.88
2023-01-17T06:50:28.687Z,98423.53
2023-01-17T06:53:00.182Z,98421.75
2023-01-17T06:55:30.728Z,98426.50
2023-01-17T06:57:59.560Z,98416.59
2023-01-17T07:00:31.027Z,98417.56
2023-01-17T07:02:58.230Z,98425.00
2023-01-17T07:05:25.143Z,98424.72
2023-01-17T07:07:52.065Z,98427.13
2023-01-17T07:10:18.888Z,98436.69
2023-01-17T07:12:45.828Z,98428.28
2023-01-17T07:15:12.806Z,98435.06
2023-01-17T07:17:39.623Z,98424.22
2023-01-17T07:20:07.022Z,98407.88
2023-01-17T07:22:34.101Z,98415.31
2023-01-17T07:25:00.965Z,98424.22
2023-01-17T07:27:30.485Z,98396.22
2023-01-17T07:29:58.042Z,98410.84
2023-01-17T07:32:26.832Z,98395.88
2023-01-17T07:34:54.608Z,98407.56
2023-01-17T07:37:21.467Z,98414.41
2023-01-17T07:39:48.270Z,98406.94
2023-01-17T07:42:15.305Z,98414.41
2023-01-17T07:44:44.131Z,98397.88
2023-01-17T07:47:11.524Z,98396.91
2023-01-17T07:49:38.353Z,98391.59
2023-01-17T07:52:08.262Z,98383.16
2023-01-17T07:54:35.264Z,98394.00
2023-01-17T07:57:02.272Z,98393.06
2023-01-17T07:59:29.217Z,98384.00
2023-01-17T08:01:56.161Z,98384.97
2023-01-17T08:04:26.291Z,98383.03
2023-01-17T08:06:55.092Z,98382.72
2023-01-17T08:09:22.039Z,98358.44
2023-01-17T08:11:48.903Z,98382.53
2023-01-17T08:14:15.740Z,98383.53
2023-01-17T08:16:42.601Z,98381.41
2023-01-17T08:19:10.310Z,98381.91
2023-01-17T08:21:37.162Z,98389.53
2023-01-17T08:24:04.284Z,98384.97
2023-01-17T08:26:31.099Z,98384.00
2023-01-17T08:29:00.541Z,98401.97
2023-01-17T08:31:28.706Z,98387.72
2023-01-17T08:33:56.942Z,98407.66
2023-01-17T08:36:25.916Z,98399.88
2023-01-17T08:38:53.029Z,98408.47
2023-01-17T08:41:21.071Z,98398.09
2023-01-17T08:43:51.465Z,98384.97
2023-01-17T08:46:18.553Z,98364.25
2023-01-17T08:48:45.485Z,98382.22
2023-01-17T08:51:12.321Z,98392.41
2023-01-17T08:53:39.242Z,98388.84
2023-01-17T08:56:06.506Z,98396.44
2023-01-17T08:58:34.165Z,98391.78
2023-01-17T09:01:05.541Z,98401.63
2023-01-17T09:03:32.996Z,98385.44
2023-01-17T09:06:06.196Z,98395.25
2023-01-17T09:08:33.361Z,98392.50
2023-01-17T09:11:13.048Z,98398.16
2023-01-17T09:13:40.118Z,98391.31
2023-01-17T09:16:07.465Z,98403.63
2023-01-17T09:18:35.456Z,98409.97
2023-01-17T09:21:15.806Z,98400.72
2023-01-17T09:23:43.033Z,98398.44
2023-01-17T09:26:41.204Z,98403.13
2023-01-17T09:29:08.010Z,98396.13
2023-01-17T09:31:34.948Z,98406.47
2023-01-17T09:34:01.800Z,98389.09
2023-01-17T09:36:29.218Z,98399.47
2023-01-17T09:38:59.857Z,98398.78
2023-01-17T09:41:57.045Z,98395.97
2023-01-17T09:44:24.328Z,98406.97
2023-01-17T09:46:52.538Z,98401.56
2023-01-17T09:49:41.885Z,98401.72
2023-01-17T09:52:10.019Z,98393.44
2023-01-17T09:54:41.570Z,98401.56
2023-01-17T09:57:30.073Z,98415.28
2023-01-17T10:00:33.901Z,98418.53
2023-01-17T10:03:25.266Z,98408.94
2023-01-17T10:06:16.725Z,98413.69
2023-01-17T10:08:55.066Z,98394.75
2023-01-17T10:11:32.901Z,98389.38
2023-01-17T10:14:18.281Z,98400.16
2023-01-17T10:17:06.423Z,98402.72
2023-01-17T10:19:56.642Z,98390.53
2023-01-17T10:22:57.291Z,98401.16
2023-01-17T10:25:36.142Z,98407.44
2023-01-17T10:28:06.765Z,98378.97
2023-01-17T10:30:43.517Z,98406.31
2023-01-17T10:33:24.583Z,98386.88
2023-01-17T10:35:59.133Z,98396.16
2023-01-17T10:38:30.165Z,98398.50
2023-01-17T10:41:21.110Z,98405.59
2023-01-17T10:44:25.329Z,98414.47
2023-01-17T10:47:16.363Z,98411.09
2023-01-17T10:49:45.309Z,98410.94
2023-01-17T10:52:13.486Z,98415.25
2023-01-17T10:54:50.193Z,98421.38
2023-01-17T10:57:21.048Z,98411.91
2023-01-17T10:59:47.967Z,98414.38
2023-01-17T11:02:26.511Z,98416.63
2023-01-17T11:04:54.787Z,98407.81
2023-01-17T11:07:26.107Z,98403.97
2023-01-17T11:09:54.641Z,98390.97
2023-01-17T11:12:41.245Z,98408.84
2023-01-17T11:15:10.940Z,98403.13
2023-01-17T11:17:48.984Z,98403.75
2023-01-17T11:20:20.185Z,98405.63
2023-01-17T11:23:19.040Z,98388.88
2023-01-17T11:26:06.101Z,98394.78
2023-01-17T11:28:34.649Z,98375.44
2023-01-17T11:31:25.301Z,98357.31
2023-01-17T11:34:07.965Z,98379.09
2023-01-17T11:36:34.962Z,98362.16
2023-01-17T11:39:23.010Z,98377.72
2023-01-17T11:41:51.104Z,98379.31
2023-01-17T11:44:26.571Z,98386.88
2023-01-17T11:47:19.049Z,98379.97
2023-01-17T11:49:49.536Z,98361.53
2023-01-17T11:52:22.723Z,98363.16
2023-01-17T11:54:50.034Z,98372.59
2023-01-17T11:57:35.354Z,98362.09
2023-01-17T12:00:23.864Z,98374.69
2023-01-17T12:03:15.355Z,98378.44
2023-01-17T12:06:26.661Z,98368.59
2023-01-17T12:09:07.702Z,98368.63
2023-01-17T12:12:30.639Z,98383.03
2023-01-17T12:15:03.177Z,98387.34
2023-01-17T12:18:09.914Z,98384.38
2023-01-17T12:21:07.125Z,98394.91
2023-01-17T12:23:47.523Z,98385.09
2023-01-17T12:26:19.639Z,98392.28
2023-01-17T12:29:23.901Z,98399.00
2023-01-17T12:32:45.258Z,98399.69
2023-01-17T12:35:27.044Z,98392.34
2023-01-17T12:38:05.273Z,98385.06
2023-01-17T12:40:46.777Z,98402.13
2023-01-17T12:43:24.511Z,98402.19
2023-01-17T12:45:51.534Z,98408.72
2023-01-17T12:48:22.520Z,98408.13
2023-01-17T12:51:14.439Z,98408.91
2023-01-17T12:53:47.806Z,98406.94
2023-01-17T12:56:24.389Z,98409.72
2023-01-17T12:59:21.960Z,98424.78
2023-01-17T13:01:58.387Z,98417.19
2023-01-17T13:04:58.527Z,98424.56
2023-01-17T13:07:33.062Z,98418.88
2023-01-17T13:10:22.922Z,98427.94
2023-01-17T13:12:50.319Z,98421.56
2023-01-17T13:15:23.503Z,98438.94
2023-01-17T13:17:51.158Z,98425.47
2023-01-17T13:20:40.861Z,98452.56
2023-01-17T13:23:23.068Z,98461.88
2023-01-17T13:25:50.631Z,98454.25
2023-01-17T13:28:28.342Z,98454.59
2023-01-17T13:31:17.979Z,98466.16
2023-01-17T13:34:24.674Z,98481.59
2023-01-17T13:37:28.781Z,98487.47
2023-01-17T13:40:01.497Z,98489.97
2023-01-17T13:43:00.512Z,98486.91
2023-01-17T13:45:36.651Z,98495.03
2023-01-17T13:48:12.410Z,98499.31
2023-01-17T13:50:41.793Z,98499.16
2023-01-17T13:53:39.496Z,98495.47
2023-01-17T13:56:28.949Z,98504.09
2023-01-17T13:59:05.703Z,98497.34
2023-01-17T14:01:34.882Z,98508.22
2023-01-17T14:04:03.042Z,98505.03
2023-01-17T14:06:46.858Z,98508.94
2023-01-17T14:09:28.450Z,98516.09
2023-01-17T14:12:05.389Z,98506.41
2023-01-17T14:14:41.092Z,98527.34
2023-01-17T14:17:23.210Z,98528.63
2023-01-17T14:19:51.527Z,98529.44
2023-01-17T14:22:21.364Z,98533.66
2023-01-17T14:25:15.027Z,98533.66
2023-01-17T14:27:48.783Z,98526.22
2023-01-17T14:30:27.690Z,98536.47
2023-01-17T14:33:04.731Z,98541.81
2023-01-17T14:35:31.446Z,98545.72
2023-01-17T14:37:59.883Z,98556.63
2023-01-17T14:40:30.550Z,98539.25
2023-01-17T14:43:03.898Z,98565.38
2023-01-17T14:45:31.959Z,98559.84
2023-01-17T14:47:59.742Z,98558.19
2023-01-17T14:50:31.561Z,98549.56
2023-01-17T14:53:18.320Z,98567.38
2023-01-17T14:55:48.031Z,98569.31
2023-01-17T14:58:26.037Z,98566.91
2023-01-17T15:01:13.309Z,98574.19
2023-01-17T15:03:49.813Z,98579.38
2023-01-17T15:06:29.167Z,98589.56
2023-01-17T15:08:56.207Z,98600.56
2023-01-17T15:11:25.826Z,98590.97
2023-01-17T15:13:55.010Z,98597.28
2023-01-17T15:16:24.501Z,98615.09
2023-01-17T15:18:52.467Z,98608.91
2023-01-17T15:21:21.263Z,98626.69
2023-01-17T15:23:55.759Z,98622.44
2023-01-17T15:26:27.406Z,98616.72
2023-01-17T15:29:05.684Z,98630.91
2023-01-17T15:31:52.437Z,98635.75
2023-01-17T15:34:27.875Z,98641.84
2023-01-17T15:36:57.513Z,98640.16
2023-01-17T15:39:25.740Z,98639.88
2023-01-17T15:41:53.523Z,98653.09
2023-01-17T15:44:47.596Z,98656.50
2023-01-17T15:47:29.323Z,98650.31
2023-01-17T15:49:56.199Z,98656.16
2023-01-17T15:52:22.997Z,98657.13
2023-01-17T15:54:52.905Z,98656.47
2023-01-17T15:57:38.953Z,98672.78
2023-01-17T16:00:20.422Z,98666.97
2023-01-17T16:02:50.116Z,98663.53
2023-01-17T16:05:42.101Z,98664.06
2023-01-17T16:08:08.819Z,98667.63
2023-01-17T16:10:37.221Z,98673.84
2023-01-17T16:13:05.222Z,98674.88
2023-01-17T16:15:32.072Z,98678.88
2023-01-17T16:18:10.106Z,98673.63
2023-01-17T16:20:44.687Z,98668.22
2023-01-17T16:23:11.828Z,98671.78
2023-01-17T16:25:38.927Z,98673.34
2023-01-17T16:28:05.980Z,98674.94
2023-01-17T16:30:33.081Z,98689.81
2023-01-17T16:32:59.974Z,98692.06
2023-01-17T16:35:31.380Z,98695.66
2023-01-17T16:37:59.726Z,98695.34
2023-01-17T16:40:28.633Z,98694.72
2023-01-17T16:42:56.112Z,98693.13
2023-01-17T16:45:24.939Z,98703.88
2023-01-17T16:47:52.602Z,98700.94
2023-01-17T16:50:23.909Z,98715.91
2023-01-17T16:52:51.478Z,98722.47
2023-01-17T16:55:18.752Z,98716.09
2023-01-17T16:57:45.619Z,98714.59
2023-01-17T17:00:13.100Z,98723.19
2023-01-17T17:02:40.866Z,98725.75
2023-01-17T17:05:08.184Z,98729.25
2023-01-17T17:07:37.631Z,98729.94
2023-01-17T17:10:04.899Z,98731.31
2023-01-17T17:12:32.478Z,98726.13
2023-01-17T17:14:59.323Z,98734.94
2023-01-17T17:17:26.227Z,98739.41
2023-01-17T17:19:53.104Z,98749.03
2023-01-17T17:22:19.946Z,98751.22
2023-01-17T17:24:46.756Z,98757.03
2023-01-17T17:27:13.587Z,98762.56
2023-01-17T17:29:41.348Z,98764.06
2023-01-17T17:32:11.579Z,98767.69
2023-01-17T17:34:38.786Z,98775.03
2023-01-17T17:37:05.586Z,98785.88
2023-01-17T17:39:33.839Z,98793.88
2023-01-17T17:42:01.060Z,98800.19
2023-01-17T17:44:27.925Z,98799.63
2023-01-17T17:46:54.747Z,98808.13
2023-01-17T17:49:22.821Z,98810.72
2023-01-17T17:51:49.784Z,98812.75
2023-01-17T17:54:17.328Z,98820.06
2023-01-17T17:56:48.352Z,98801.44
2023-01-17T17:59:18.341Z,98809.28
2023-01-17T18:01:45.930Z,98817.72
2023-01-17T18:04:13.522Z,98824.22
2023-01-17T18:06:40.580Z,98824.38
2023-01-17T18:09:08.423Z,98834.97
2023-01-17T18:11:35.936Z,98838.88
2023-01-17T18:14:03.640Z,98830.84
2023-01-17T18:16:37.621Z,98833.56
2023-01-17T18:19:04.643Z,98822.69
2023-01-17T18:21:33.158Z,98823.06
2023-01-17T18:24:09.113Z,98816.06
2023-01-17T18:26:37.963Z,98821.41
2023-01-17T18:29:06.333Z,98828.69
2023-01-17T18:31:33.692Z,98832.69
2023-01-17T18:34:04.430Z,98826.78
2023-01-17T18:36:31.428Z,98826.69
2023-01-17T18:38:58.383Z,98842.44
2023-01-17T18:41:27.218Z,98854.16
2023-01-17T18:43:56.128Z,98845.31
2023-01-17T18:46:23.200Z,98853.31
2023-01-17T18:48:50.084Z,98849.09
2023-01-17T18:51:18.462Z,98858.59
2023-01-17T18:53:45.880Z,98852.84
2023-01-17T18:56:18.203Z,98856.00
2023-01-17T18:58:45.821Z,98864.66
2023-01-17T19:01:26.103Z,98862.63
2023-01-17T19:03:54.450Z,98873.59
2023-01-17T19:06:25.842Z,98883.00
2023-01-17T19:08:52.847Z,98880.72
2023-01-17T19:11:23.243Z,98871.63
2023-01-17T19:13:50.438Z,98890.22
2023-01-17T19:16:20.096Z,98907.06
2023-01-17T19:18:47.410Z,98898.78
2023-01-17T19:21:15.859Z,98904.63
2023-01-17T19:23:45.783Z,98915.94
2023-01-17T19:26:13.520Z,98915.53
2023-01-17T19:28:41.108Z,98927.22
2023-01-17T19:31:09.452Z,98925.19
2023-01-17T19:33:37.543Z,98937.84
2023-01-17T19:36:06.222Z,98940.78
2023-01-17T19:38:34.281Z,98930.59
2023-01-17T19:41:09.245Z,98954.09
2023-01-17T19:43:36.117Z,98949.59
2023-01-17T19:46:03.024Z,98961.13
2023-01-17T19:48:30.386Z,98965.59
2023-01-17T19:51:09.957Z,98961.91
2023-01-17T19:53:37.321Z,98955.19
2023-01-17T19:56:06.204Z,98959.13
2023-01-17T19:58:33.163Z,98957.28
2023-01-17T20:01:17.255Z,98974.94
2023-01-17T20:03:45.100Z,98973.09
2023-01-17T20:06:20.105Z,98980.28
2023-01-17T20:08:47.027Z,98985.69
2023-01-17T20:11:18.640Z,98994.06
2023-01-17T20:13:46.391Z,98993.06
2023-01-17T20:16:16.653Z,98995.75
2023-01-17T20:18:43.676Z,98993.41
2023-01-17T20:21:23.579Z,98994.13
2023-01-17T20:23:51.204Z,98996.13
2023-01-17T20:26:34.425Z,99006.19
2023-01-17T20:29:02.817Z,99017.56
2023-01-17T20:31:30.193Z,99007.88
2023-01-17T20:33:56.990Z,99021.19
2023-01-17T20:36:25.767Z,99016.56
2023-01-17T20:38:53.677Z,99018.41
2023-01-17T20:41:24.088Z,99027.44
2023-01-17T20:43:52.632Z,99033.88
2023-01-17T20:46:20.172Z,99043.63
2023-01-17T20:48:48.262Z,99057.31
2023-01-17T20:51:15.243Z,99058.75
2023-01-17T20:53:42.466Z,99063.56
2023-01-17T20:56:09.608Z,99066.75
2023-01-17T20:58:36.424Z,99081.75
2023-01-17T21:01:03.375Z,99078.00
2023-01-17T21:03:30.362Z,99090.28
2023-01-17T21:06:05.641Z,99088.78
2023-01-17T21:08:33.809Z,99088.44
2023-01-17T21:11:00.801Z,99083.88
2023-01-17T21:13:27.657Z,99092.66
2023-01-17T21:15:54.582Z,99084.59
2023-01-17T21:18:22.486Z,99082.59
2023-01-17T21:20:49.556Z,99091.59
2023-01-17T21:23:20.239Z,99097.69
2023-01-17T21:25:55.522Z,99107.25
2023-01-17T21:28:23.172Z,99104.00
2023-01-17T21:30:50.063Z,99109.16
2023-01-17T21:33:17.604Z,99119.31
2023-01-17T21:35:44.540Z,99109.16
2023-01-17T21:38:12.684Z,99111.47
2023-01-17T21:40:39.730Z,99104.09
2023-01-17T21:43:06.558Z,99109.59
2023-01-17T21:45:39.678Z,99109.09
2023-01-17T21:48:07.143Z,99109.09
2023-01-17T21:50:34.316Z,99096.22
2023-01-17T21:53:01.292Z,99098.94
2023-01-17T21:55:46.480Z,99108.63
2023-01-17T21:58:32.734Z,99118.63
2023-01-17T22:01:09.053Z,99122.38
2023-01-17T22:03:36.362Z,99126.31
2023-01-17T22:06:05.027Z,99131.81
2023-01-17T22:08:35.469Z,99131.31
2023-01-17T22:11:07.368Z,99138.31
2023-01-17T22:13:34.738Z,99135.25
2023-01-17T22:16:03.151Z,99131.88
2023-01-17T22:18:30.182Z,99131.41
2023-01-17T22:20:57.223Z,99124.25
2023-01-17T22:23:24.099Z,99128.06
2023-01-17T22:25:50.862Z,99128.19
2023-01-17T22:28:17.867Z,99123.13
2023-01-17T22:30:44.737Z,99133.41
2023-01-17T22:33:11.561Z,99125.91
2023-01-17T22:35:38.511Z,99126.84
2023-01-17T22:38:05.581Z,99127.28
2023-01-17T22:40:32.842Z,99130.66
2023-01-17T22:42:59.981Z,99144.84
2023-01-17T22:45:27.639Z,99139.31
2023-01-17T22:47:54.461Z,99153.78
2023-01-17T22:50:23.480Z,99157.72
2023-01-17T22:52:50.422Z,99153.13
2023-01-17T22:55:18.352Z,99153.78
2023-01-17T22:57:46.806Z,99163.31
2023-01-17T23:00:14.853Z,99158.53
2023-01-17T23:02:42.082Z,99170.84
2023-01-17T23:05:12.265Z,99163.66
2023-01-17T23:07:43.791Z,99177.53
2023-01-17T23:10:12.486Z,99171.50
2023-01-17T23:12:39.684Z,99186.16
2023-01-17T23:15:25.361Z,99204.66
2023-01-17T23:18:10.520Z,99197.47
2023-01-17T23:20:37.322Z,99200.13
2023-01-17T23:23:04.120Z,99194.69
2023-01-17T23:25:30.926Z,99202.47
2023-01-17T23:28:15.962Z,99204.75
2023-01-17T23:30:43.112Z,99198.59
2023-01-17T23:33:14.357Z,99206.50
2023-01-17T23:35:42.697Z,99217.97
2023-01-17T23:38:29.795Z,99229.28
2023-01-17T23:41:22.196Z,99238.16
2023-01-17T23:43:56.170Z,99249.63
2023-01-17T23:46:24.123Z,99248.38
2023-01-17T23:48:51.043Z,99251.69
2023-01-17T23:51:17.880Z,99248.50
2023-01-17T23:53:44.660Z,99246.88
2023-01-17T23:56:18.653Z,99251.88
2023-01-17T23:58:45.444Z,99248.50
